Time;durP1;ratioP1;P1;durP2;ratioP2;P2;SDS_P1;SDS_P2;PMS_P1;PMS_P2;Temp;Humidity;BMP_temperature;BMP_pressure;BME280_temperature;BME280_humidity;BME280_pressure;Samples;Min_cycle;Max_cycle;Signal;HPM_P1;HPM_P2
2024/01/27 00:00:08;;;;;;;26.75;3.88;;;;;;;;;;5089949;28;20048;-70
2024/01/27 00:02:34;;;;;;;21.75;4.03;;;;;;;;;;5104409;28;20378;-70
2024/01/27 00:05:00;;;;;;;33.65;4.22;;;;;;;;;;5092823;28;20040;-70
2024/01/27 00:07:28;;;;;;;22.02;4.25;;;;;;;;;;5110503;28;20122;-70
2024/01/27 00:09:54;;;;;;;29.30;3.90;;;;;;;;;;5110388;28;20043;-71
2024/01/27 00:12:20;;;;;;;23.35;3.70;;;;;;;;;;5110884;28;20050;-71
2024/01/27 00:14:46;;;;;;;21.65;4.70;;;;;;;;;;5094438;28;20123;-71
2024/01/27 00:17:12;;;;;;;20.77;4.25;;;;;;;;;;5075222;28;20142;-71
2024/01/27 00:19:38;;;;;;;26.45;3.33;;;;;;;;;;5109751;28;20039;-71
2024/01/27 00:22:04;;;;;;;24.23;3.80;;;;;;;;;;5092018;28;20071;-71
2024/01/27 00:24:30;;;;;;;26.67;3.95;;;;;;;;;;5105274;28;20039;-71
2024/01/27 00:26:56;;;;;;;22.70;4.00;;;;;;;;;;5109929;28;20386;-71
2024/01/27 00:29:22;;;;;;;14.05;3.75;;;;;;;;;;5109996;28;20046;-71
2024/01/27 00:31:50;;;;;;;27.13;3.53;;;;;;;;;;5110244;28;20027;-71
2024/01/27 00:34:16;;;;;;;21.77;3.83;;;;;;;;;;5109592;28;20044;-71
2024/01/27 00:36:48;;;;;;;29.58;3.97;;;;;;;;;;5109676;28;20036;-71
2024/01/27 00:39:14;;;;;;;27.48;3.40;;;;;;;;;;5092082;28;20042;-69
2024/01/27 00:41:40;;;;;;;29.35;4.25;;;;;;;;;;5102492;28;20035;-70
2024/01/27 00:44:06;;;;;;;28.67;4.15;;;;;;;;;;5109705;28;20047;-70
2024/01/27 00:46:32;;;;;;;20.55;3.65;;;;;;;;;;5109304;28;20039;-70
2024/01/27 00:48:58;;;;;;;19.05;3.50;;;;;;;;;;5109502;28;20028;-70
2024/01/27 00:51:24;;;;;;;20.70;3.63;;;;;;;;;;5109343;28;20042;-71
2024/01/27 00:53:50;;;;;;;17.92;3.63;;;;;;;;;;5102934;28;20036;-70
2024/01/27 00:56:16;;;;;;;24.98;4.03;;;;;;;;;;5088872;28;20051;-70
2024/01/27 00:58:42;;;;;;;23.52;3.35;;;;;;;;;;5102802;28;20070;-70
2024/01/27 01:01:08;;;;;;;22.13;3.58;;;;;;;;;;5108407;28;20086;-71
2024/01/27 01:03:34;;;;;;;23.27;3.30;;;;;;;;;;5089103;28;20050;-70
2024/01/27 01:06:00;;;;;;;27.35;3.90;;;;;;;;;;5096110;28;20036;-70
2024/01/27 01:08:26;;;;;;;20.23;4.97;;;;;;;;;;5092581;28;20555;-70
2024/01/27 01:10:52;;;;;;;27.25;3.75;;;;;;;;;;5108619;28;20036;-70
2024/01/27 01:13:18;;;;;;;18.42;4.22;;;;;;;;;;5092186;28;20044;-70
2024/01/27 01:15:44;;;;;;;17.55;4.20;;;;;;;;;;5108962;28;20040;-70
2024/01/27 01:18:10;;;;;;;19.30;4.20;;;;;;;;;;5100196;28;20036;-70
2024/01/27 01:20:36;;;;;;;25.08;3.75;;;;;;;;;;5088688;28;20067;-70
2024/01/27 01:23:02;;;;;;;24.95;4.63;;;;;;;;;;5104454;28;20035;-70
2024/01/27 01:25:28;;;;;;;20.70;4.03;;;;;;;;;;5105917;28;20394;-70
2024/01/27 01:27:54;;;;;;;18.50;3.50;;;;;;;;;;5089055;28;20047;-70
2024/01/27 01:30:20;;;;;;;28.48;3.33;;;;;;;;;;5087887;28;20478;-69
2024/01/27 01:32:47;;;;;;;21.73;3.83;;;;;;;;;;5071844;28;20047;-70
2024/01/27 01:35:12;;;;;;;14.30;3.05;;;;;;;;;;5087920;28;20032;-70
2024/01/27 01:37:39;;;;;;;25.33;4.63;;;;;;;;;;5091831;28;20537;-71
2024/01/27 01:40:06;;;;;;;30.15;7.65;;;;;;;;;;5108359;28;20096;-70
2024/01/27 01:42:32;;;;;;;27.85;7.32;;;;;;;;;;5099449;28;20545;-70
2024/01/27 01:44:58;;;;;;;25.92;4.75;;;;;;;;;;5108471;28;20039;-70
2024/01/27 01:47:24;;;;;;;19.75;3.63;;;;;;;;;;5090687;28;20044;-70
2024/01/27 01:49:50;;;;;;;17.10;3.63;;;;;;;;;;5099054;28;20651;-70
2024/01/27 01:52:19;;;;;;;22.48;3.95;;;;;;;;;;5108776;28;20092;-71
2024/01/27 01:54:49;;;;;;;23.38;4.28;;;;;;;;;;5096878;28;20091;-71
2024/01/27 01:57:15;;;;;;;22.05;4.25;;;;;;;;;;5087697;28;20395;-71
2024/01/27 01:59:41;;;;;;;15.63;3.40;;;;;;;;;;5090438;28;20640;-70
2024/01/27 02:02:08;;;;;;;22.10;3.40;;;;;;;;;;5077091;28;20031;-70
2024/01/27 02:04:45;;;;;;;18.00;3.70;;;;;;;;;;5108734;28;20054;-70
2024/01/27 02:07:12;;;;;;;19.05;3.97;;;;;;;;;;5108008;28;20036;-70
2024/01/27 02:09:38;;;;;;;19.88;3.85;;;;;;;;;;5108119;28;20039;-70
2024/01/27 02:12:04;;;;;;;22.15;4.32;;;;;;;;;;5100122;28;20044;-70
2024/01/27 02:14:30;;;;;;;27.33;4.60;;;;;;;;;;5096936;28;20043;-70
2024/01/27 02:16:57;;;;;;;30.58;6.05;;;;;;;;;;5091124;28;20059;-71
2024/01/27 02:19:23;;;;;;;18.90;3.97;;;;;;;;;;5107944;28;20048;-70
2024/01/27 02:21:49;;;;;;;26.40;3.85;;;;;;;;;;5094202;28;20101;-70
2024/01/27 02:24:15;;;;;;;27.40;3.90;;;;;;;;;;5106126;28;20074;-70
2024/01/27 02:26:41;;;;;;;25.55;3.22;;;;;;;;;;5095023;28;20067;-70
2024/01/27 02:29:07;;;;;;;25.25;4.78;;;;;;;;;;5112345;28;20089;-70
2024/01/27 02:31:33;;;;;;;17.23;3.10;;;;;;;;;;5095217;28;20130;-70
2024/01/27 02:33:59;;;;;;;24.40;4.28;;;;;;;;;;5101973;28;20131;-70
2024/01/27 02:36:25;;;;;;;23.50;3.85;;;;;;;;;;5091616;28;20119;-70
2024/01/27 02:38:51;;;;;;;17.08;2.78;;;;;;;;;;5102918;28;20076;-70
2024/01/27 02:41:17;;;;;;;17.48;3.17;;;;;;;;;;5102756;28;20040;-70
2024/01/27 02:43:43;;;;;;;21.60;4.43;;;;;;;;;;5091580;28;20207;-70
2024/01/27 02:46:13;;;;;;;20.92;3.33;;;;;;;;;;5079029;28;20039;-70
2024/01/27 02:48:42;;;;;;;26.17;4.35;;;;;;;;;;5095406;28;20131;-70
2024/01/27 02:51:09;;;;;;;22.65;4.40;;;;;;;;;;5094413;28;20557;-70
2024/01/27 02:53:35;;;;;;;22.50;3.78;;;;;;;;;;5111946;28;20066;-70
2024/01/27 02:56:01;;;;;;;19.67;3.67;;;;;;;;;;5091223;28;20044;-70
2024/01/27 02:58:27;;;;;;;19.05;3.45;;;;;;;;;;5091949;28;20182;-71
2024/01/27 03:00:53;;;;;;;20.95;3.45;;;;;;;;;;5090950;28;20143;-71
2024/01/27 03:03:19;;;;;;;23.17;3.88;;;;;;;;;;5105600;28;20054;-70
2024/01/27 03:05:45;;;;;;;19.75;3.70;;;;;;;;;;5095226;28;20528;-70
2024/01/27 03:08:11;;;;;;;25.13;3.17;;;;;;;;;;5111390;28;20087;-70
2024/01/27 03:10:37;;;;;;;19.42;3.80;;;;;;;;;;5103709;28;20127;-70
2024/01/27 03:13:03;;;;;;;13.50;3.03;;;;;;;;;;5073979;28;20040;-70
2024/01/27 03:15:29;;;;;;;26.70;4.78;;;;;;;;;;5106545;28;20626;-70
2024/01/27 03:17:55;;;;;;;21.80;3.63;;;;;;;;;;5092075;28;20038;-71
2024/01/27 03:20:21;;;;;;;22.90;4.32;;;;;;;;;;5090547;28;20044;-71
2024/01/27 03:22:47;;;;;;;20.65;3.65;;;;;;;;;;5092922;28;20032;-70
2024/01/27 03:25:14;;;;;;;26.65;3.55;;;;;;;;;;5111577;28;20084;-71
2024/01/27 03:27:40;;;;;;;22.33;3.13;;;;;;;;;;5090637;28;20051;-70
2024/01/27 03:30:07;;;;;;;19.15;3.13;;;;;;;;;;5106814;28;20044;-70
2024/01/27 03:32:33;;;;;;;21.40;3.75;;;;;;;;;;5073579;28;20040;-70
2024/01/27 03:35:02;;;;;;;16.30;3.28;;;;;;;;;;5101403;28;20610;-70
2024/01/27 03:37:29;;;;;;;15.57;3.53;;;;;;;;;;5093943;28;20501;-70
2024/01/27 03:39:55;;;;;;;28.33;3.58;;;;;;;;;;5110544;28;20043;-70
2024/01/27 03:42:21;;;;;;;21.25;3.30;;;;;;;;;;5080338;28;20042;-70
2024/01/27 03:44:47;;;;;;;21.13;3.58;;;;;;;;;;5111252;28;20043;-70
2024/01/27 03:47:13;;;;;;;17.38;3.22;;;;;;;;;;5098137;28;20093;-70
2024/01/27 03:49:39;;;;;;;20.85;3.70;;;;;;;;;;5100173;28;20490;-70
2024/01/27 03:52:05;;;;;;;17.70;3.45;;;;;;;;;;5110348;28;20055;-70
2024/01/27 03:54:31;;;;;;;19.40;3.22;;;;;;;;;;5105870;28;20379;-70
2024/01/27 03:56:57;;;;;;;25.48;4.18;;;;;;;;;;5090041;28;20126;-70
2024/01/27 03:59:23;;;;;;;24.60;3.97;;;;;;;;;;5102153;28;20056;-70
2024/01/27 04:01:49;;;;;;;23.75;3.67;;;;;;;;;;5110462;28;20047;-70
2024/01/27 04:04:15;;;;;;;19.98;4.00;;;;;;;;;;5094191;28;20662;-70
2024/01/27 04:06:41;;;;;;;26.45;3.90;;;;;;;;;;5095675;28;20078;-70
2024/01/27 04:09:11;;;;;;;27.63;3.78;;;;;;;;;;5093542;28;20040;-70
2024/01/27 04:11:37;;;;;;;24.27;3.97;;;;;;;;;;5110091;28;20058;-70
2024/01/27 04:14:04;;;;;;;17.55;4.10;;;;;;;;;;5093143;28;20130;-70
2024/01/27 04:16:30;;;;;;;25.60;4.05;;;;;;;;;;5090241;28;20047;-70
2024/01/27 04:18:56;;;;;;;23.42;4.75;;;;;;;;;;5097390;28;20035;-70
2024/01/27 04:21:22;;;;;;;19.88;4.28;;;;;;;;;;5109740;28;20381;-70
2024/01/27 04:23:49;;;;;;;24.30;4.22;;;;;;;;;;5105182;28;20044;-70
2024/01/27 04:26:15;;;;;;;20.23;3.90;;;;;;;;;;5093150;28;20667;-70
2024/01/27 04:28:41;;;;;;;23.85;4.13;;;;;;;;;;5109862;28;20084;-70
2024/01/27 04:31:07;;;;;;;26.50;4.05;;;;;;;;;;5109717;28;20131;-70
2024/01/27 04:33:33;;;;;;;23.60;3.88;;;;;;;;;;5109976;28;20075;-71
2024/01/27 04:35:59;;;;;;;29.30;5.00;;;;;;;;;;5094022;28;20375;-70
2024/01/27 04:38:25;;;;;;;15.98;4.07;;;;;;;;;;5091615;28;20081;-70
2024/01/27 04:40:52;;;;;;;18.20;3.45;;;;;;;;;;5103719;28;20036;-70
2024/01/27 04:43:20;;;;;;;24.02;4.05;;;;;;;;;;5099523;28;20089;-70
2024/01/27 04:45:46;;;;;;;24.15;4.38;;;;;;;;;;5109319;28;20473;-70
2024/01/27 04:48:12;;;;;;;24.63;4.05;;;;;;;;;;5092395;28;20032;-70
2024/01/27 04:50:38;;;;;;;19.25;3.85;;;;;;;;;;5106665;28;20071;-69
2024/01/27 04:53:04;;;;;;;21.95;3.83;;;;;;;;;;5109284;28;20047;-69
2024/01/27 04:55:30;;;;;;;13.63;3.40;;;;;;;;;;5098466;28;20177;-71
2024/01/27 04:57:58;;;;;;;25.73;4.18;;;;;;;;;;5088858;28;20043;-71
2024/01/27 05:00:26;;;;;;;24.35;3.95;;;;;;;;;;5106826;28;20070;-71
2024/01/27 05:02:52;;;;;;;20.73;4.05;;;;;;;;;;5087248;28;20040;-71
2024/01/27 05:05:18;;;;;;;15.85;3.33;;;;;;;;;;5089483;28;20164;-69
2024/01/27 05:07:44;;;;;;;19.70;3.50;;;;;;;;;;5101176;28;20116;-70
2024/01/27 05:10:13;;;;;;;19.35;3.72;;;;;;;;;;5109238;28;20126;-70
2024/01/27 05:12:39;;;;;;;27.60;5.10;;;;;;;;;;5089605;28;20601;-70
2024/01/27 05:15:05;;;;;;;20.70;4.22;;;;;;;;;;5089212;28;20052;-70
2024/01/27 05:17:31;;;;;;;15.40;3.55;;;;;;;;;;5088932;28;20044;-70
2024/01/27 05:19:58;;;;;;;24.67;3.88;;;;;;;;;;5101737;28;20039;-70
2024/01/27 05:22:24;;;;;;;22.48;3.78;;;;;;;;;;5092012;28;20466;-70
2024/01/27 05:24:50;;;;;;;21.60;4.03;;;;;;;;;;5109067;28;20036;-70
2024/01/27 05:27:16;;;;;;;36.17;4.95;;;;;;;;;;5099488;28;20047;-70
2024/01/27 05:29:42;;;;;;;26.83;4.72;;;;;;;;;;5108690;28;20588;-70
2024/01/27 05:32:08;;;;;;;28.77;4.68;;;;;;;;;;5108750;28;20047;-70
2024/01/27 05:34:35;;;;;;;29.65;4.75;;;;;;;;;;5108872;28;20123;-70
2024/01/27 05:37:01;;;;;;;17.58;4.45;;;;;;;;;;5108726;28;20039;-70
2024/01/27 05:39:29;;;;;;;22.77;4.30;;;;;;;;;;5099010;28;20044;-70
2024/01/27 05:41:55;;;;;;;22.02;3.80;;;;;;;;;;5103036;28;20385;-70
2024/01/27 05:44:21;;;;;;;16.23;3.80;;;;;;;;;;5092304;28;20036;-71
2024/01/27 05:46:47;;;;;;;20.50;3.83;;;;;;;;;;5091912;28;20112;-70
2024/01/27 05:49:13;;;;;;;20.35;5.10;;;;;;;;;;5090876;28;20039;-70
2024/01/27 05:51:39;;;;;;;26.17;3.83;;;;;;;;;;5108898;28;20043;-70
2024/01/27 05:54:05;;;;;;;24.15;4.55;;;;;;;;;;5108392;28;20040;-70
2024/01/27 05:56:31;;;;;;;15.98;5.00;;;;;;;;;;5090910;28;20366;-70
2024/01/27 05:58:57;;;;;;;22.30;4.20;;;;;;;;;;5091678;28;20058;-70
2024/01/27 06:01:23;;;;;;;21.42;4.32;;;;;;;;;;5091416;28;20067;-70
2024/01/27 06:03:49;;;;;;;21.20;4.72;;;;;;;;;;5091419;28;20039;-70
2024/01/27 06:06:15;;;;;;;20.27;4.20;;;;;;;;;;5092107;28;20043;-71
2024/01/27 06:08:41;;;;;;;22.85;4.80;;;;;;;;;;5089745;28;20114;-70
2024/01/27 06:11:07;;;;;;;24.55;5.05;;;;;;;;;;5091842;28;20051;-70
2024/01/27 06:13:34;;;;;;;24.23;4.78;;;;;;;;;;5088552;28;20044;-71
2024/01/27 06:16:00;;;;;;;25.15;4.80;;;;;;;;;;5088028;28;20043;-70
2024/01/27 06:18:26;;;;;;;21.50;4.78;;;;;;;;;;5088440;28;20040;-70
2024/01/27 06:20:52;;;;;;;27.77;5.43;;;;;;;;;;5098945;28;20036;-71
2024/01/27 06:23:18;;;;;;;25.30;4.95;;;;;;;;;;5077158;28;20066;-70
2024/01/27 06:25:44;;;;;;;27.38;6.20;;;;;;;;;;5108405;28;20035;-70
2024/01/27 06:28:10;;;;;;;31.08;6.22;;;;;;;;;;5094776;28;20039;-71
2024/01/27 06:30:36;;;;;;;23.73;6.10;;;;;;;;;;5087466;28;20072;-71
2024/01/27 06:33:02;;;;;;;18.27;5.82;;;;;;;;;;5108453;28;20132;-71
2024/01/27 06:35:28;;;;;;;21.33;6.53;;;;;;;;;;5100921;28;20047;-71
2024/01/27 06:37:54;;;;;;;26.35;6.22;;;;;;;;;;5088023;28;20075;-71
2024/01/27 06:40:20;;;;;;;24.42;6.47;;;;;;;;;;5101558;28;20055;-71
2024/01/27 06:42:46;;;;;;;37.17;7.43;;;;;;;;;;5106767;28;20036;-71
2024/01/27 06:45:13;;;;;;;24.02;6.57;;;;;;;;;;5070874;28;20032;-71
2024/01/27 06:47:39;;;;;;;26.40;7.32;;;;;;;;;;5096405;28;20085;-71
2024/01/27 06:50:05;;;;;;;31.63;7.53;;;;;;;;;;5107447;28;20040;-71
2024/01/27 06:52:31;;;;;;;31.58;7.97;;;;;;;;;;5090958;28;20048;-71
2024/01/27 06:54:57;;;;;;;27.92;8.40;;;;;;;;;;5107552;28;20043;-71
2024/01/27 06:57:24;;;;;;;26.60;8.35;;;;;;;;;;5108108;28;20683;-71
2024/01/27 06:59:52;;;;;;;26.90;8.13;;;;;;;;;;5107233;28;20056;-71
2024/01/27 07:02:26;;;;;;;21.08;8.75;;;;;;;;;;5108086;28;20518;-71
2024/01/27 07:04:52;;;;;;;23.58;8.68;;;;;;;;;;5072726;28;20046;-71
2024/01/27 07:07:18;;;;;;;28.67;8.30;;;;;;;;;;5076383;28;20098;-71
2024/01/27 07:09:44;;;;;;;27.63;8.80;;;;;;;;;;5110521;28;20040;-71
2024/01/27 07:12:10;;;;;;;27.55;8.68;;;;;;;;;;5111302;28;20139;-70
2024/01/27 07:14:36;;;;;;;29.88;9.60;;;;;;;;;;5111536;28;20046;-71
2024/01/27 07:17:03;;;;;;;24.92;9.15;;;;;;;;;;5091960;28;20047;-71
2024/01/27 07:19:29;;;;;;;27.10;9.10;;;;;;;;;;5079853;28;20035;-71
2024/01/27 07:21:55;;;;;;;20.48;8.75;;;;;;;;;;5094302;28;20382;-71
2024/01/27 07:24:21;;;;;;;33.40;9.32;;;;;;;;;;5089059;28;20074;-71
2024/01/27 07:26:47;;;;;;;37.38;9.48;;;;;;;;;;5098078;28;20044;-71
2024/01/27 07:29:13;;;;;;;32.72;8.90;;;;;;;;;;5073868;28;20043;-71
2024/01/27 07:31:40;;;;;;;33.97;8.77;;;;;;;;;;5097615;28;20052;-71
2024/01/27 07:34:06;;;;;;;23.33;8.73;;;;;;;;;;5111471;28;20676;-71
2024/01/27 07:36:32;;;;;;;22.85;8.95;;;;;;;;;;5095811;28;20043;-71
2024/01/27 07:38:58;;;;;;;30.98;9.00;;;;;;;;;;5091901;28;20044;-70
2024/01/27 07:41:24;;;;;;;23.98;8.32;;;;;;;;;;5103879;28;20043;-70
2024/01/27 07:43:51;;;;;;;26.73;8.80;;;;;;;;;;5099309;28;20031;-69
2024/01/27 07:46:19;;;;;;;25.98;8.38;;;;;;;;;;5093646;28;20086;-69
2024/01/27 07:48:45;;;;;;;32.90;8.73;;;;;;;;;;5096971;28;20686;-69
2024/01/27 07:51:11;;;;;;;27.30;9.43;;;;;;;;;;5109898;28;20051;-70
2024/01/27 07:53:37;;;;;;;29.88;9.45;;;;;;;;;;5111038;28;20452;-70
2024/01/27 07:56:04;;;;;;;22.25;8.02;;;;;;;;;;5110203;28;20115;-70
2024/01/27 07:58:30;;;;;;;23.80;9.05;;;;;;;;;;5111198;28;20044;-70
2024/01/27 08:00:56;;;;;;;28.85;9.00;;;;;;;;;;5092618;28;20070;-70
2024/01/27 08:03:22;;;;;;;21.15;8.43;;;;;;;;;;5094464;28;20684;-70
2024/01/27 08:05:48;;;;;;;24.73;8.07;;;;;;;;;;5110876;28;20625;-70
2024/01/27 08:08:14;;;;;;;22.30;8.50;;;;;;;;;;5099229;28;20042;-71
2024/01/27 08:10:40;;;;;;;26.50;8.85;;;;;;;;;;5072923;28;20073;-70
2024/01/27 08:13:07;;;;;;;30.80;9.18;;;;;;;;;;5074400;28;20040;-70
2024/01/27 08:15:33;;;;;;;23.60;7.68;;;;;;;;;;5095055;28;20044;-70
2024/01/27 08:17:59;;;;;;;27.42;8.05;;;;;;;;;;5093714;28;20089;-70
2024/01/27 08:20:25;;;;;;;30.35;8.98;;;;;;;;;;5086197;28;20382;-70
2024/01/27 08:22:51;;;;;;;25.15;8.98;;;;;;;;;;5092838;28;20035;-70
2024/01/27 08:25:17;;;;;;;29.83;8.50;;;;;;;;;;5109950;28;20726;-70
2024/01/27 08:27:43;;;;;;;25.25;9.00;;;;;;;;;;5096059;28;20119;-70
2024/01/27 08:30:10;;;;;;;36.10;9.45;;;;;;;;;;5108146;27;20126;-70
2024/01/27 08:32:36;;;;;;;29.45;9.13;;;;;;;;;;5116514;27;20058;-70
2024/01/27 08:35:02;;;;;;;28.15;7.85;;;;;;;;;;5110139;28;20134;-70
2024/01/27 08:37:28;;;;;;;33.22;8.57;;;;;;;;;;5073041;28;20044;-70
2024/01/27 08:39:54;;;;;;;28.15;8.63;;;;;;;;;;5079504;28;20046;-70
2024/01/27 08:42:20;;;;;;;33.08;10.30;;;;;;;;;;5095398;28;20401;-70
2024/01/27 08:44:46;;;;;;;32.15;8.77;;;;;;;;;;5104201;28;20176;-70
2024/01/27 08:47:12;;;;;;;19.05;8.95;;;;;;;;;;5109775;28;20043;-70
2024/01/27 08:49:38;;;;;;;25.80;8.75;;;;;;;;;;5109578;28;20083;-70
2024/01/27 08:52:04;;;;;;;31.20;10.20;;;;;;;;;;5100537;28;20059;-70
2024/01/27 08:54:30;;;;;;;29.25;8.90;;;;;;;;;;5089544;28;20043;-70
2024/01/27 08:56:56;;;;;;;22.98;9.95;;;;;;;;;;5104146;28;20103;-69
2024/01/27 08:59:22;;;;;;;28.20;9.43;;;;;;;;;;5107034;28;20113;-69
2024/01/27 09:01:48;;;;;;;31.08;9.85;;;;;;;;;;5088885;28;20135;-69
2024/01/27 09:04:14;;;;;;;25.65;8.52;;;;;;;;;;5098850;28;20123;-70
2024/01/27 09:06:40;;;;;;;26.05;9.02;;;;;;;;;;5109252;28;20024;-70
2024/01/27 09:09:06;;;;;;;27.15;8.52;;;;;;;;;;5092560;28;20101;-70
2024/01/27 09:11:34;;;;;;;28.58;9.25;;;;;;;;;;5107986;28;20680;-70
2024/01/27 09:14:00;;;;;;;24.60;7.95;;;;;;;;;;5092431;28;20039;-70
2024/01/27 09:16:26;;;;;;;31.70;9.65;;;;;;;;;;5108996;28;20046;-70
2024/01/27 09:18:52;;;;;;;26.92;9.32;;;;;;;;;;5109381;28;20036;-71
2024/01/27 09:21:20;;;;;;;31.38;9.98;;;;;;;;;;5109151;28;20678;-70
2024/01/27 09:23:47;;;;;;;19.30;8.90;;;;;;;;;;5092486;28;20122;-70
2024/01/27 09:26:15;;;;;;;30.50;9.20;;;;;;;;;;5100794;28;20040;-71
2024/01/27 09:28:45;;;;;;;29.23;9.65;;;;;;;;;;5088779;28;20115;-70
2024/01/27 09:31:11;;;;;;;28.02;9.68;;;;;;;;;;5087923;28;20145;-70
2024/01/27 09:33:37;;;;;;;26.50;9.10;;;;;;;;;;5108237;28;20043;-70
2024/01/27 09:36:04;;;;;;;22.02;9.50;;;;;;;;;;5109166;28;20043;-71
2024/01/27 09:38:30;;;;;;;31.85;9.68;;;;;;;;;;5091923;28;20074;-69
2024/01/27 09:40:56;;;;;;;26.83;9.32;;;;;;;;;;5108370;28;20041;-70
2024/01/27 09:43:22;;;;;;;23.50;9.52;;;;;;;;;;5108144;28;20036;-70
2024/01/27 09:45:48;;;;;;;24.80;9.52;;;;;;;;;;5108476;28;20074;-70
2024/01/27 09:48:14;;;;;;;30.73;9.45;;;;;;;;;;5108420;28;20112;-70
2024/01/27 09:50:46;;;;;;;30.45;9.63;;;;;;;;;;5108411;28;20389;-70
2024/01/27 09:53:12;;;;;;;31.35;9.93;;;;;;;;;;5107912;28;20039;-70
2024/01/27 09:55:38;;;;;;;25.10;9.27;;;;;;;;;;5105699;28;20054;-70
2024/01/27 09:58:05;;;;;;;28.65;9.52;;;;;;;;;;5088322;28;20395;-71
2024/01/27 10:00:31;;;;;;;20.60;8.82;;;;;;;;;;5098342;28;20048;-70
2024/01/27 10:02:57;;;;;;;22.88;8.73;;;;;;;;;;5108256;28;20145;-71
2024/01/27 10:05:24;;;;;;;26.40;8.95;;;;;;;;;;5108403;28;20567;-71
2024/01/27 10:07:50;;;;;;;20.75;8.55;;;;;;;;;;5108535;28;20046;-70
2024/01/27 10:10:17;;;;;;;23.08;9.40;;;;;;;;;;5108522;28;20031;-71
2024/01/27 10:12:43;;;;;;;24.25;8.73;;;;;;;;;;5076738;28;20375;-70
2024/01/27 10:15:22;;;;;;;26.85;8.88;;;;;;;;;;5088004;28;20131;-70
2024/01/27 10:17:48;;;;;;;25.08;9.73;;;;;;;;;;5087771;28;20048;-71
2024/01/27 10:20:18;;;;;;;27.80;9.05;;;;;;;;;;5088358;28;20532;-71
2024/01/27 10:22:45;;;;;;;23.08;8.00;;;;;;;;;;5088810;28;20036;-71
2024/01/27 10:25:11;;;;;;;25.77;8.85;;;;;;;;;;5108372;28;20162;-71
2024/01/27 10:27:37;;;;;;;22.02;8.63;;;;;;;;;;5108384;28;20046;-71
2024/01/27 10:30:07;;;;;;;33.00;9.27;;;;;;;;;;5108568;28;20089;-71
2024/01/27 10:32:33;;;;;;;27.48;9.00;;;;;;;;;;5107849;28;20043;-71
2024/01/27 10:35:03;;;;;;;29.05;8.30;;;;;;;;;;5108481;28;20505;-71
2024/01/27 10:37:29;;;;;;;20.52;8.05;;;;;;;;;;5090887;28;20389;-71
2024/01/27 10:40:04;;;;;;;25.83;8.73;;;;;;;;;;5091378;28;20047;-71
2024/01/27 10:42:31;;;;;;;25.02;8.30;;;;;;;;;;5093648;28;20051;-71
2024/01/27 10:45:00;;;;;;;25.77;8.60;;;;;;;;;;5104053;28;20039;-71
2024/01/27 10:47:30;;;;;;;25.33;8.95;;;;;;;;;;5094877;28;20047;-72
2024/01/27 10:49:57;;;;;;;25.38;8.35;;;;;;;;;;5085944;28;20044;-71
2024/01/27 10:52:28;;;;;;;22.00;7.72;;;;;;;;;;5111475;28;20051;-71
2024/01/27 10:54:55;;;;;;;28.98;8.63;;;;;;;;;;5111293;28;20043;-69
2024/01/27 10:57:21;;;;;;;19.20;8.02;;;;;;;;;;5079169;28;20075;-71
2024/01/27 10:59:49;;;;;;;24.35;8.05;;;;;;;;;;5093362;28;20056;-70
2024/01/27 11:02:15;;;;;;;29.25;7.95;;;;;;;;;;5094872;28;20089;-71
2024/01/27 11:04:43;;;;;;;22.00;7.88;;;;;;;;;;5101227;28;20123;-70
2024/01/27 11:07:09;;;;;;;29.88;8.80;;;;;;;;;;5091135;28;20399;-70
2024/01/27 11:09:36;;;;;;;22.75;7.22;;;;;;;;;;5108328;28;20036;-70
2024/01/27 11:12:02;;;;;;;19.63;7.15;;;;;;;;;;5106965;28;20035;-70
2024/01/27 11:14:29;;;;;;;28.10;8.35;;;;;;;;;;5074104;28;20501;-70
2024/01/27 11:16:56;;;;;;;24.60;8.07;;;;;;;;;;5085289;28;20043;-70
2024/01/27 11:19:22;;;;;;;26.85;7.57;;;;;;;;;;5111346;28;20529;-70
2024/01/27 11:21:48;;;;;;;31.80;8.45;;;;;;;;;;5108252;28;20110;-71
2024/01/27 11:24:14;;;;;;;25.25;7.70;;;;;;;;;;5111089;28;20258;-70
2024/01/27 11:26:41;;;;;;;21.65;7.20;;;;;;;;;;5099135;28;20068;-70
2024/01/27 11:29:09;;;;;;;23.45;7.22;;;;;;;;;;5103202;28;20502;-70
2024/01/27 11:31:35;;;;;;;21.63;7.05;;;;;;;;;;5111750;28;20055;-71
2024/01/27 11:34:01;;;;;;;25.17;7.38;;;;;;;;;;5090242;28;20066;-71
2024/01/27 11:36:27;;;;;;;26.55;6.57;;;;;;;;;;5097794;28;20043;-71
2024/01/27 11:38:55;;;;;;;28.08;5.90;;;;;;;;;;5111222;28;20044;-70
2024/01/27 11:41:28;;;;;;;16.90;5.95;;;;;;;;;;5105031;28;20044;-70
2024/01/27 11:43:55;;;;;;;21.02;6.70;;;;;;;;;;5090401;28;20517;-71
2024/01/27 11:46:21;;;;;;;24.70;6.20;;;;;;;;;;5090588;28;20059;-72
2024/01/27 11:48:48;;;;;;;25.25;7.38;;;;;;;;;;5099287;28;20046;-70
2024/01/27 11:51:14;;;;;;;19.73;6.60;;;;;;;;;;5094113;28;20067;-69
2024/01/27 11:53:40;;;;;;;18.90;6.22;;;;;;;;;;5109874;28;20067;-69
2024/01/27 11:56:07;;;;;;;21.45;6.35;;;;;;;;;;5107069;28;20096;-70
2024/01/27 11:58:33;;;;;;;23.77;6.28;;;;;;;;;;5089910;28;20473;-70
2024/01/27 12:01:00;;;;;;;22.63;6.47;;;;;;;;;;5100827;28;20639;-71
2024/01/27 12:03:27;;;;;;;26.25;6.63;;;;;;;;;;5093908;28;20053;-70
2024/01/27 12:05:53;;;;;;;23.70;6.13;;;;;;;;;;5111269;28;20104;-70
2024/01/27 12:08:19;;;;;;;23.52;6.40;;;;;;;;;;5110671;28;20078;-70
2024/01/27 12:10:45;;;;;;;21.30;5.65;;;;;;;;;;5109978;28;20489;-70
2024/01/27 12:13:11;;;;;;;20.15;5.82;;;;;;;;;;5092227;28;20040;-70
2024/01/27 12:15:37;;;;;;;20.73;6.43;;;;;;;;;;5089657;28;20087;-70
2024/01/27 12:18:05;;;;;;;21.08;6.22;;;;;;;;;;5109009;28;20482;-70
2024/01/27 12:20:31;;;;;;;21.20;5.93;;;;;;;;;;5110118;28;20082;-70
2024/01/27 12:23:04;;;;;;;21.55;6.18;;;;;;;;;;5110930;28;20032;-71
2024/01/27 12:25:30;;;;;;;24.70;6.72;;;;;;;;;;5106985;28;20067;-70
2024/01/27 12:28:00;;;;;;;19.58;6.20;;;;;;;;;;5090665;28;20071;-70
2024/01/27 12:30:26;;;;;;;19.40;6.03;;;;;;;;;;5093070;28;20554;-70
2024/01/27 12:32:53;;;;;;;20.05;6.20;;;;;;;;;;5101337;28;20047;-70
2024/01/27 12:35:19;;;;;;;24.52;6.60;;;;;;;;;;5089338;28;20040;-70
2024/01/27 12:37:45;;;;;;;21.50;5.50;;;;;;;;;;5105295;28;20047;-70
2024/01/27 12:40:17;;;;;;;23.90;6.10;;;;;;;;;;5092615;28;20043;-70
2024/01/27 12:42:43;;;;;;;20.52;6.55;;;;;;;;;;5110104;28;20046;-70
2024/01/27 12:45:09;;;;;;;20.48;5.72;;;;;;;;;;5098769;28;20036;-70
2024/01/27 12:47:35;;;;;;;17.05;5.05;;;;;;;;;;5089897;28;20039;-70
2024/01/27 12:50:01;;;;;;;21.60;5.75;;;;;;;;;;5089732;28;20046;-70
2024/01/27 12:52:27;;;;;;;19.05;5.40;;;;;;;;;;5105094;28;20044;-71
2024/01/27 12:54:53;;;;;;;23.92;5.55;;;;;;;;;;5088911;28;20544;-70
2024/01/27 12:57:20;;;;;;;20.85;5.47;;;;;;;;;;5084278;28;20089;-70
2024/01/27 12:59:46;;;;;;;24.38;5.38;;;;;;;;;;5108932;28;20051;-70
2024/01/27 13:02:12;;;;;;;16.88;5.32;;;;;;;;;;5109519;28;20048;-70
2024/01/27 13:04:38;;;;;;;14.98;5.22;;;;;;;;;;5108785;28;20039;-70
2024/01/27 13:07:04;;;;;;;22.08;5.53;;;;;;;;;;5109336;28;20071;-71
2024/01/27 13:09:30;;;;;;;16.33;4.90;;;;;;;;;;5092224;28;20661;-70
2024/01/27 13:11:56;;;;;;;24.55;4.97;;;;;;;;;;5102317;28;20050;-71
2024/01/27 13:14:22;;;;;;;17.17;4.72;;;;;;;;;;5088757;28;20089;-70
2024/01/27 13:16:48;;;;;;;18.80;4.47;;;;;;;;;;5095310;28;20497;-71
2024/01/27 13:19:14;;;;;;;16.13;4.95;;;;;;;;;;5109432;28;20524;-71
2024/01/27 13:21:40;;;;;;;21.45;4.78;;;;;;;;;;5108144;28;20028;-71
2024/01/27 13:24:10;;;;;;;18.50;4.32;;;;;;;;;;5109101;28;20071;-70
2024/01/27 13:26:40;;;;;;;18.25;4.78;;;;;;;;;;5091570;28;20044;-71
2024/01/27 13:29:06;;;;;;;18.25;4.07;;;;;;;;;;5100141;28;20032;-70
2024/01/27 13:31:32;;;;;;;19.45;5.10;;;;;;;;;;5088416;28;20036;-70
2024/01/27 13:33:58;;;;;;;22.80;4.18;;;;;;;;;;5104974;28;20455;-70
2024/01/27 13:36:28;;;;;;;16.77;4.43;;;;;;;;;;5105370;28;20074;-70
2024/01/27 13:38:54;;;;;;;17.60;4.13;;;;;;;;;;5088839;28;20508;-70
2024/01/27 13:41:20;;;;;;;17.23;3.95;;;;;;;;;;5092806;28;20040;-71
2024/01/27 13:43:46;;;;;;;17.85;4.22;;;;;;;;;;5088379;28;20599;-70
2024/01/27 13:46:12;;;;;;;20.33;4.50;;;;;;;;;;5089517;28;20123;-71
2024/01/27 13:48:38;;;;;;;20.75;4.45;;;;;;;;;;5089252;28;20375;-71
2024/01/27 13:51:04;;;;;;;23.67;4.82;;;;;;;;;;5108634;28;20043;-70
2024/01/27 13:53:30;;;;;;;21.30;5.80;;;;;;;;;;5108751;28;20078;-71
2024/01/27 13:55:56;;;;;;;21.17;8.02;;;;;;;;;;5108608;28;20088;-70
2024/01/27 13:58:22;;;;;;;24.23;6.80;;;;;;;;;;5089788;28;20528;-71
2024/01/27 14:00:48;;;;;;;25.02;5.72;;;;;;;;;;5076508;28;20055;-71
2024/01/27 14:03:15;;;;;;;16.88;5.20;;;;;;;;;;5108579;28;20035;-70
2024/01/27 14:05:42;;;;;;;20.75;4.95;;;;;;;;;;5095053;28;20053;-70
2024/01/27 14:08:10;;;;;;;19.13;4.43;;;;;;;;;;5071637;28;20056;-71
2024/01/27 14:10:36;;;;;;;15.27;4.22;;;;;;;;;;5071013;28;20569;-70
2024/01/27 14:13:04;;;;;;;17.98;4.53;;;;;;;;;;5097667;28;20359;-70
2024/01/27 14:15:30;;;;;;;17.65;4.07;;;;;;;;;;5087918;28;20048;-70
2024/01/27 14:17:56;;;;;;;22.13;4.68;;;;;;;;;;5106296;28;20648;-71
2024/01/27 14:20:22;;;;;;;18.42;3.80;;;;;;;;;;5111273;28;20461;-71
2024/01/27 14:22:48;;;;;;;16.77;4.00;;;;;;;;;;5094121;28;20043;-70
2024/01/27 14:25:14;;;;;;;14.50;4.07;;;;;;;;;;5112068;28;20571;-71